createdAt,value
2018-08-17T00:01:22.252Z,20.50
2018-08-17T00:03:56.719Z,20.50
2018-08-17T00:06:30.946Z,20.20
2018-08-17T00:09:08.172Z,20.10
2018-08-17T00:11:42.589Z,20.10
2018-08-17T00:14:16.871Z,20.30
2018-08-17T00:16:51.185Z,20.40
2018-08-17T00:19:25.456Z,20.40
2018-08-17T00:21:59.754Z,20.30
2018-08-17T00:24:33.980Z,20.30
2018-08-17T00:27:08.236Z,20.20
2018-08-17T00:29:42.585Z,20.40
2018-08-17T00:32:16.879Z,20.30
2018-08-17T00:34:51.240Z,20.40
2018-08-17T00:37:25.423Z,20.40
2018-08-17T00:39:59.724Z,20.40
2018-08-17T00:42:33.913Z,20.40
2018-08-17T00:45:08.219Z,20.50
2018-08-17T00:47:42.548Z,20.50
2018-08-17T00:50:16.823Z,20.50
2018-08-17T00:52:51.020Z,20.60
2018-08-17T00:55:25.399Z,20.50
2018-08-17T00:57:59.852Z,20.60
2018-08-17T01:00:34.024Z,20.70
2018-08-17T01:03:08.884Z,20.80
2018-08-17T01:05:43.292Z,20.70
2018-08-17T01:08:17.576Z,20.60
2018-08-17T01:10:51.912Z,20.50
2018-08-17T01:13:26.231Z,20.40
2018-08-17T01:16:00.571Z,20.30
2018-08-17T01:18:34.885Z,20.40
2018-08-17T01:21:09.167Z,20.30
2018-08-17T01:23:43.460Z,20.40
2018-08-17T01:26:17.852Z,20.40
2018-08-17T01:28:52.036Z,20.30
2018-08-17T01:31:26.387Z,20.30
2018-08-17T01:34:00.668Z,20.20
2018-08-17T01:36:35.076Z,20.30
2018-08-17T01:39:10.087Z,20.30
2018-08-17T01:41:44.414Z,20.30
2018-08-17T01:44:18.741Z,20.10
2018-08-17T01:46:53.050Z,19.90
2018-08-17T01:49:27.372Z,20.10
2018-08-17T01:52:01.727Z,20.20
2018-08-17T01:54:36.416Z,20.30
2018-08-17T01:57:10.639Z,20.20
2018-08-17T01:59:44.908Z,20.30
2018-08-17T02:02:19.219Z,20.30
2018-08-17T02:04:53.463Z,20.10
2018-08-17T02:07:27.883Z,20.00
2018-08-17T02:10:02.092Z,19.90
2018-08-17T02:12:36.640Z,19.70
2018-08-17T02:15:10.839Z,19.70
2018-08-17T02:17:45.120Z,19.80
2018-08-17T02:20:19.447Z,19.60
2018-08-17T02:22:53.783Z,19.40
2018-08-17T02:25:28.054Z,19.60
2018-08-17T02:28:02.288Z,19.70
2018-08-17T02:30:36.606Z,19.60
2018-08-17T02:33:11.004Z,19.50
2018-08-17T02:35:45.192Z,19.50
2018-08-17T02:38:19.380Z,19.30
2018-08-17T02:40:53.688Z,19.70
2018-08-17T02:46:07.963Z,19.50
2018-08-17T02:48:42.421Z,19.50
2018-08-17T02:51:16.779Z,19.30
2018-08-17T02:53:51.120Z,19.40
2018-08-17T02:56:25.476Z,19.50
2018-08-17T02:58:59.864Z,19.30
2018-08-17T03:01:34.196Z,19.20
2018-08-17T03:04:08.531Z,19.40
2018-08-17T03:06:42.911Z,19.60
2018-08-17T03:09:17.132Z,19.40
2018-08-17T03:11:51.388Z,19.40
2018-08-17T03:14:25.774Z,19.00
2018-08-17T03:17:00.126Z,19.30
2018-08-17T03:19:34.499Z,18.90
2018-08-17T03:22:08.800Z,18.90
2018-08-17T03:24:43.075Z,19.20
2018-08-17T03:27:17.376Z,19.40
2018-08-17T03:29:51.677Z,18.90
2018-08-17T03:32:26.027Z,18.80
2018-08-17T03:35:00.299Z,18.80
2018-08-17T03:37:34.659Z,18.70
2018-08-17T03:40:08.980Z,18.90
2018-08-17T03:42:43.175Z,18.80
2018-08-17T03:45:17.548Z,18.60
2018-08-17T03:47:52.012Z,19.00
2018-08-17T03:50:26.264Z,19.20
2018-08-17T03:53:00.584Z,19.10
2018-08-17T03:55:34.888Z,19.40
2018-08-17T03:58:09.228Z,19.40
2018-08-17T04:00:43.536Z,19.70
2018-08-17T04:03:17.902Z,19.50
2018-08-17T04:05:52.208Z,19.30
2018-08-17T04:08:26.360Z,19.40
2018-08-17T04:11:00.587Z,19.30
2018-08-17T04:13:34.839Z,19.00
2018-08-17T04:16:09.224Z,19.00
2018-08-17T04:18:58.904Z,19.40
2018-08-17T04:21:33.308Z,19.20
2018-08-17T04:24:07.675Z,19.30
2018-08-17T04:26:41.883Z,19.30
2018-08-17T04:29:16.167Z,19.50
2018-08-17T04:31:50.446Z,19.60
2018-08-17T04:34:24.879Z,19.60
2018-08-17T04:36:59.032Z,19.60
2018-08-17T04:39:33.308Z,19.50
2018-08-17T04:42:07.863Z,19.40
2018-08-17T04:44:42.999Z,19.50
2018-08-17T04:47:17.220Z,19.50
2018-08-17T04:49:51.507Z,19.80
2018-08-17T04:52:25.867Z,19.70
2018-08-17T04:55:00.237Z,20.00
2018-08-17T04:57:34.704Z,19.70
2018-08-17T05:00:09.860Z,19.50
2018-08-17T05:02:44.092Z,19.60
2018-08-17T05:05:18.428Z,19.70
2018-08-17T05:07:52.680Z,19.70
2018-08-17T05:10:27.064Z,19.80
2018-08-17T05:13:01.425Z,19.80
2018-08-17T05:15:35.728Z,19.40
2018-08-17T05:18:11.100Z,19.20
2018-08-17T05:20:45.305Z,19.50
2018-08-17T05:23:19.624Z,19.00
2018-08-17T05:25:53.861Z,19.20
2018-08-17T05:28:28.368Z,19.40
2018-08-17T05:31:02.690Z,19.30
2018-08-17T05:33:36.896Z,19.40
2018-08-17T05:36:11.219Z,19.40
2018-08-17T05:38:45.740Z,19.30
2018-08-17T05:41:20.104Z,19.50
2018-08-17T05:43:54.455Z,19.50
2018-08-17T05:46:28.844Z,19.50
2018-08-17T05:49:03.160Z,19.20
2018-08-17T05:51:37.520Z,19.30
2018-08-17T05:54:11.854Z,19.30
2018-08-17T05:56:46.184Z,19.20
2018-08-17T05:59:20.420Z,19.20
2018-08-17T06:01:54.642Z,19.40
2018-08-17T06:04:28.936Z,19.50
2018-08-17T06:07:03.503Z,19.70
2018-08-17T06:09:37.987Z,19.60
2018-08-17T06:12:12.192Z,19.70
2018-08-17T06:14:46.487Z,19.90
2018-08-17T06:17:20.788Z,19.90
2018-08-17T06:19:55.092Z,19.90
2018-08-17T06:22:29.318Z,19.90
2018-08-17T06:25:08.217Z,19.80
2018-08-17T06:27:42.919Z,20.00
2018-08-17T06:30:17.304Z,19.90
2018-08-17T06:32:51.556Z,20.20
2018-08-17T06:35:25.900Z,21.20
2018-08-17T06:38:00.236Z,20.90
2018-08-17T06:40:34.532Z,20.40
2018-08-17T06:43:08.865Z,19.40
2018-08-17T06:45:43.132Z,19.50
2018-08-17T06:48:17.417Z,19.70
2018-08-17T06:50:51.873Z,19.80
2018-08-17T06:53:26.063Z,19.70
2018-08-17T06:56:00.209Z,19.30
2018-08-17T06:58:34.420Z,18.70
2018-08-17T07:01:08.684Z,18.60
2018-08-17T07:03:43.065Z,18.70
2018-08-17T07:06:17.328Z,18.80
2018-08-17T07:08:51.765Z,18.90
2018-08-17T07:11:25.880Z,18.20
2018-08-17T07:14:00.203Z,18.00
2018-08-17T07:16:34.639Z,18.20
2018-08-17T07:19:08.892Z,18.70
2018-08-17T07:21:43.212Z,19.00
2018-08-17T07:24:17.463Z,19.10
2018-08-17T07:26:51.920Z,19.10
2018-08-17T07:29:26.124Z,19.10
2018-08-17T07:32:00.521Z,19.10
2018-08-17T07:34:34.707Z,19.30
2018-08-17T07:37:09.070Z,19.10
2018-08-17T07:39:43.311Z,18.80
2018-08-17T07:42:17.684Z,18.50
2018-08-17T07:44:51.867Z,18.40
2018-08-17T07:47:30.964Z,18.80
2018-08-17T07:50:06.397Z,18.80
2018-08-17T07:52:40.798Z,18.90
2018-08-17T07:55:15.368Z,18.80
2018-08-17T07:57:49.756Z,18.50
2018-08-17T08:00:24.088Z,18.80
2018-08-17T08:02:58.335Z,18.30
2018-08-17T08:05:32.716Z,18.40
2018-08-17T08:08:06.955Z,18.60
2018-08-17T08:10:41.204Z,18.80
2018-08-17T08:13:15.576Z,18.60
2018-08-17T08:15:49.893Z,18.70
2018-08-17T08:18:24.224Z,18.90
2018-08-17T08:20:58.564Z,18.50
2018-08-17T08:23:32.907Z,18.80
2018-08-17T08:26:07.346Z,18.80
2018-08-17T08:28:42.410Z,19.00
2018-08-17T08:31:19.061Z,18.80
2018-08-17T08:33:54.927Z,18.90
2018-08-17T08:36:29.288Z,19.10
2018-08-17T08:39:05.400Z,19.00
2018-08-17T08:41:39.609Z,19.10
2018-08-17T08:44:14.045Z,19.00
2018-08-17T08:46:48.260Z,19.00
2018-08-17T08:49:22.616Z,18.70
2018-08-17T08:51:57.028Z,18.70
2018-08-17T08:54:31.324Z,18.80
2018-08-17T08:57:05.652Z,19.00
2018-08-17T08:59:39.964Z,19.40
2018-08-17T09:02:14.288Z,19.50
2018-08-17T09:04:48.597Z,19.30
2018-08-17T09:07:22.866Z,19.40
2018-08-17T09:09:57.059Z,19.70
2018-08-17T09:12:31.508Z,20.30
2018-08-17T09:15:07.188Z,20.20
2018-08-17T09:17:42.571Z,20.10
2018-08-17T09:20:17.340Z,20.10
2018-08-17T09:22:51.655Z,20.10
2018-08-17T09:25:25.849Z,20.30
2018-08-17T09:28:00.200Z,20.30
2018-08-17T09:30:34.655Z,20.60
2018-08-17T09:33:09.641Z,20.90
2018-08-17T09:35:43.808Z,20.90
2018-08-17T09:38:18.131Z,21.00
2018-08-17T09:40:52.268Z,21.00
2018-08-17T09:43:26.655Z,20.60
2018-08-17T09:46:00.957Z,20.50
2018-08-17T09:48:35.161Z,20.50
2018-08-17T09:51:09.887Z,20.30
2018-08-17T09:53:44.014Z,20.60
2018-08-17T09:56:36.282Z,20.90
2018-08-17T09:59:10.583Z,20.70
2018-08-17T10:01:50.412Z,20.40
2018-08-17T10:04:29.932Z,20.80
2018-08-17T10:16:02.744Z,20.30
2018-08-17T10:18:41.260Z,20.50
2018-08-17T10:21:15.874Z,20.80
2018-08-17T10:23:49.983Z,20.90
2018-08-17T10:26:24.316Z,21.10
2018-08-17T10:29:00.151Z,21.20
2018-08-17T10:31:34.516Z,21.30
2018-08-17T10:34:09.110Z,21.20
2018-08-17T10:36:43.829Z,21.20
2018-08-17T10:39:18.116Z,21.20
2018-08-17T10:41:52.464Z,21.10
2018-08-17T10:44:26.761Z,21.10
2018-08-17T10:47:01.066Z,21.20
2018-08-17T10:49:35.388Z,20.90
2018-08-17T10:52:09.615Z,21.20
2018-08-17T10:54:43.921Z,21.60
2018-08-17T10:57:18.368Z,21.90
2018-08-17T10:59:52.675Z,22.00
2018-08-17T11:02:26.964Z,21.80
2018-08-17T11:05:01.280Z,22.10
2018-08-17T11:07:38.724Z,21.60
2018-08-17T11:10:13.023Z,22.00
2018-08-17T11:12:47.792Z,21.80
2018-08-17T11:15:22.159Z,21.90
2018-08-17T11:17:56.473Z,22.10
2018-08-17T11:20:30.652Z,21.40
2018-08-17T11:23:05.092Z,21.90
2018-08-17T11:25:39.380Z,21.80
2018-08-17T11:28:13.744Z,21.80
2018-08-17T11:30:48.096Z,21.80
2018-08-17T11:33:26.065Z,21.70
2018-08-17T11:36:00.372Z,21.80
2018-08-17T11:38:34.712Z,21.90
2018-08-17T11:41:10.624Z,21.80
2018-08-17T11:43:44.979Z,21.90
2018-08-17T11:46:19.196Z,22.10
2018-08-17T11:48:53.663Z,22.00
2018-08-17T11:51:27.899Z,22.10
2018-08-17T11:54:02.209Z,22.00
2018-08-17T11:56:36.485Z,22.10
2018-08-17T11:59:10.792Z,21.90
2018-08-17T12:01:45.092Z,21.80
2018-08-17T12:04:19.363Z,21.90
2018-08-17T12:06:53.656Z,22.00
2018-08-17T12:09:27.968Z,22.00
2018-08-17T12:12:02.184Z,22.10
2018-08-17T12:14:36.380Z,21.80
2018-08-17T12:17:10.660Z,21.90
2018-08-17T12:19:44.956Z,22.10
2018-08-17T12:22:19.275Z,22.00
2018-08-17T12:24:53.520Z,22.10
2018-08-17T12:27:27.776Z,21.70
2018-08-17T12:30:02.058Z,22.00
2018-08-17T12:32:36.240Z,21.70
2018-08-17T12:35:10.464Z,21.70
2018-08-17T12:37:44.738Z,22.00
2018-08-17T12:40:18.956Z,21.60
2018-08-17T12:42:53.371Z,21.40
2018-08-17T12:45:28.081Z,21.80
2018-08-17T12:48:02.464Z,22.00
2018-08-17T12:50:37.304Z,21.80
2018-08-17T12:53:11.912Z,21.80
2018-08-17T12:55:46.105Z,21.70
2018-08-17T12:58:21.870Z,21.80
2018-08-17T13:00:56.186Z,22.00
2018-08-17T13:03:30.564Z,22.10
2018-08-17T13:06:04.807Z,21.40
2018-08-17T13:08:39.118Z,21.90
2018-08-17T13:11:13.423Z,22.30
2018-08-17T13:13:47.811Z,22.60
2018-08-17T13:16:22.004Z,22.90
2018-08-17T13:18:56.309Z,22.50
2018-08-17T13:21:30.648Z,21.50
2018-08-17T13:24:04.985Z,21.40
2018-08-17T13:26:39.307Z,21.50
2018-08-17T13:29:13.576Z,21.80
2018-08-17T13:31:48.028Z,21.60
2018-08-17T13:34:22.248Z,21.50
2018-08-17T13:36:56.464Z,21.40
2018-08-17T13:39:30.816Z,22.10
2018-08-17T13:42:05.268Z,22.60
2018-08-17T13:44:39.460Z,22.60
2018-08-17T13:47:13.789Z,23.10
2018-08-17T13:49:48.108Z,23.30
2018-08-17T13:52:22.464Z,22.90
2018-08-17T13:54:57.247Z,22.80
2018-08-17T13:57:31.409Z,22.80
2018-08-17T14:00:06.811Z,22.80
2018-08-17T14:02:41.108Z,22.60
2018-08-17T14:05:15.453Z,22.90
2018-08-17T14:07:49.720Z,22.60
2018-08-17T14:10:24.502Z,22.50
2018-08-17T14:12:58.900Z,22.60
2018-08-17T14:15:33.233Z,22.70
2018-08-17T14:18:07.486Z,23.00
2018-08-17T14:20:41.796Z,23.20
2018-08-17T14:23:16.119Z,22.50
2018-08-17T14:25:50.424Z,22.20
2018-08-17T14:28:24.640Z,22.40
2018-08-17T14:30:58.932Z,22.10
2018-08-17T14:33:33.160Z,22.00
2018-08-17T14:36:07.867Z,22.30
2018-08-17T14:38:42.104Z,22.40
2018-08-17T14:41:16.405Z,22.50
2018-08-17T14:43:50.717Z,22.60
2018-08-17T14:46:25.210Z,23.00
2018-08-17T14:48:59.606Z,23.00
2018-08-17T14:51:34.390Z,22.90
2018-08-17T14:54:09.732Z,22.90
2018-08-17T14:56:44.203Z,22.80
2018-08-17T14:59:18.447Z,22.80
2018-08-17T15:01:52.745Z,23.10
2018-08-17T15:04:27.155Z,23.10
2018-08-17T15:07:01.480Z,23.20
2018-08-17T15:09:35.895Z,23.30
2018-08-17T15:12:10.676Z,23.20
2018-08-17T15:14:45.024Z,23.30
2018-08-17T15:17:19.360Z,23.20
2018-08-17T15:19:53.743Z,23.00
2018-08-17T15:22:28.085Z,23.20
2018-08-17T15:25:02.307Z,23.30
2018-08-17T15:27:36.604Z,23.10
2018-08-17T15:30:11.972Z,23.10
2018-08-17T15:32:46.204Z,23.20
2018-08-17T15:35:20.539Z,23.00
2018-08-17T15:37:54.702Z,23.00
2018-08-17T15:40:29.187Z,23.10
2018-08-17T15:43:09.739Z,23.00
2018-08-17T15:45:44.187Z,23.00
2018-08-17T15:48:18.751Z,23.00
2018-08-17T15:50:52.969Z,23.00
2018-08-17T15:53:27.280Z,23.00
2018-08-17T15:56:01.508Z,22.80
2018-08-17T15:58:35.864Z,23.00
2018-08-17T16:01:10.604Z,23.50
2018-08-17T16:03:44.780Z,23.70
2018-08-17T16:06:19.112Z,23.50
2018-08-17T16:08:53.412Z,23.80
2018-08-17T16:11:27.748Z,23.60
2018-08-17T16:14:02.016Z,23.60
2018-08-17T16:16:36.665Z,23.70
2018-08-17T16:19:10.864Z,23.20
2018-08-17T16:21:45.154Z,23.20
2018-08-17T16:24:19.484Z,22.80
2018-08-17T16:26:53.775Z,22.80
2018-08-17T16:29:28.088Z,23.20
2018-08-17T16:32:02.483Z,23.00
2018-08-17T16:34:36.580Z,22.90
2018-08-17T16:37:10.847Z,23.00
2018-08-17T16:39:50.539Z,23.00
2018-08-17T16:42:29.017Z,22.80
2018-08-17T16:45:04.964Z,22.80
2018-08-17T16:47:39.152Z,22.80
2018-08-17T16:50:13.456Z,22.80
2018-08-17T16:52:47.740Z,22.70
2018-08-17T16:55:22.036Z,22.60
2018-08-17T16:57:56.296Z,22.70
2018-08-17T17:00:30.793Z,22.60
2018-08-17T17:03:04.916Z,22.50
2018-08-17T17:05:39.136Z,22.50
2018-08-17T17:08:13.496Z,22.60
2018-08-17T17:10:47.836Z,22.80
2018-08-17T17:13:22.223Z,22.70
2018-08-17T17:15:56.537Z,22.80
2018-08-17T17:18:31.284Z,22.80
2018-08-17T17:21:05.603Z,22.70
2018-08-17T17:23:45.196Z,22.60
2018-08-17T17:26:19.493Z,22.50
2018-08-17T17:28:53.777Z,22.50
2018-08-17T17:31:28.092Z,22.50
2018-08-17T17:34:02.460Z,22.40
2018-08-17T17:36:37.218Z,22.40
2018-08-17T17:39:13.080Z,22.60
2018-08-17T17:41:47.449Z,22.50
2018-08-17T17:44:21.668Z,22.30
2018-08-17T17:46:55.904Z,22.50
2018-08-17T17:49:30.251Z,22.40
2018-08-17T17:52:04.618Z,22.20
2018-08-17T17:54:38.891Z,22.10
2018-08-17T17:57:13.224Z,22.00
2018-08-17T17:59:52.852Z,22.00
2018-08-17T18:02:28.080Z,21.90
2018-08-17T18:05:02.400Z,21.90
2018-08-17T18:07:43.900Z,21.80
2018-08-17T18:10:20.310Z,21.90
2018-08-17T18:12:54.591Z,21.80
2018-08-17T18:15:28.903Z,22.00
2018-08-17T18:18:03.192Z,21.70
2018-08-17T18:20:37.484Z,21.60
2018-08-17T18:23:11.670Z,21.50
2018-08-17T18:25:46.018Z,21.40
2018-08-17T18:28:20.321Z,21.20
2018-08-17T18:30:54.568Z,21.10
2018-08-17T18:33:28.973Z,21.30
2018-08-17T18:36:03.176Z,21.20
2018-08-17T18:38:37.455Z,21.30
2018-08-17T18:41:11.836Z,21.30
2018-08-17T18:43:46.188Z,21.30
2018-08-17T18:46:20.499Z,21.10
2018-08-17T18:48:54.919Z,21.00
2018-08-17T18:51:29.116Z,20.90
2018-08-17T18:54:03.644Z,21.00
2018-08-17T18:56:38.003Z,20.90
2018-08-17T18:59:12.269Z,20.80
2018-08-17T19:01:46.528Z,20.60
2018-08-17T19:04:20.818Z,20.60
2018-08-17T19:06:54.960Z,20.50
2018-08-17T19:09:29.371Z,20.40
2018-08-17T19:12:03.553Z,20.40
2018-08-17T19:14:47.732Z,20.30
2018-08-17T19:17:27.532Z,20.30
2018-08-17T19:20:01.940Z,20.20
2018-08-17T19:22:37.034Z,20.00
2018-08-17T19:25:12.279Z,19.90
2018-08-17T19:27:46.652Z,19.90
2018-08-17T19:30:26.998Z,19.90
2018-08-17T19:33:07.468Z,19.90
2018-08-17T19:35:45.563Z,19.80
2018-08-17T19:38:19.767Z,19.80
2018-08-17T19:40:54.010Z,19.70
2018-08-17T19:43:28.268Z,19.70
2018-08-17T19:46:02.796Z,19.60
2018-08-17T19:48:36.908Z,19.50
2018-08-17T19:51:17.684Z,19.60
2018-08-17T19:53:52.008Z,19.60
2018-08-17T19:56:26.332Z,19.60
2018-08-17T19:59:00.700Z,19.60
2018-08-17T20:01:35.377Z,19.50
2018-08-17T20:04:09.883Z,19.50
2018-08-17T20:06:44.119Z,19.40
2018-08-17T20:09:18.413Z,19.40
2018-08-17T20:11:52.765Z,19.40
2018-08-17T20:14:26.965Z,19.20
2018-08-17T20:17:01.264Z,19.20
2018-08-17T20:19:40.892Z,19.30
2018-08-17T20:22:17.383Z,19.20
2018-08-17T20:24:51.738Z,19.30
2018-08-17T20:27:26.096Z,19.20
2018-08-17T20:30:05.526Z,19.20
2018-08-17T20:32:39.689Z,19.10
2018-08-17T20:35:13.972Z,19.10
2018-08-17T20:37:50.669Z,19.00
2018-08-17T20:40:24.887Z,19.00
2018-08-17T20:42:59.210Z,18.90
2018-08-17T20:45:33.335Z,18.90
2018-08-17T20:48:07.680Z,18.90
2018-08-17T20:50:41.864Z,18.80
2018-08-17T20:53:19.128Z,18.90
2018-08-17T20:55:53.507Z,18.80
2018-08-17T20:58:27.816Z,18.60
2018-08-17T21:01:02.216Z,18.50
2018-08-17T21:03:36.480Z,18.40
2018-08-17T21:06:10.808Z,18.40
2018-08-17T21:08:45.140Z,18.40
2018-08-17T21:11:19.348Z,18.30
2018-08-17T21:13:53.520Z,18.30
2018-08-17T21:16:27.872Z,18.30
2018-08-17T21:19:02.079Z,18.30
2018-08-17T21:21:36.481Z,18.40
2018-08-17T21:24:10.760Z,18.30
2018-08-17T21:26:45.080Z,18.40
2018-08-17T21:29:19.411Z,18.40
2018-08-17T21:31:53.588Z,18.40
2018-08-17T21:34:27.918Z,18.30
2018-08-17T21:37:02.131Z,18.30
2018-08-17T21:39:36.344Z,18.20
2018-08-17T21:42:10.625Z,18.10
2018-08-17T21:44:44.832Z,18.00
2018-08-17T21:47:19.035Z,18.00
2018-08-17T21:49:54.691Z,18.00
2018-08-17T21:52:28.953Z,18.00
2018-08-17T21:55:03.266Z,17.90
2018-08-17T21:57:37.573Z,17.90
2018-08-17T22:00:18.748Z,17.70
2018-08-17T22:02:52.968Z,17.70
2018-08-17T22:05:29.164Z,17.80
2018-08-17T22:08:03.579Z,17.90
2018-08-17T22:10:37.995Z,18.00
2018-08-17T22:13:24.101Z,17.70
2018-08-17T22:15:58.624Z,17.80
2018-08-17T22:18:33.064Z,17.70
2018-08-17T22:21:07.409Z,17.80
2018-08-17T22:23:41.591Z,17.90
2018-08-17T22:26:15.943Z,17.80
2018-08-17T22:28:50.281Z,17.90
2018-08-17T22:31:36.624Z,17.90
2018-08-17T22:34:10.852Z,17.80
2018-08-17T22:36:45.244Z,17.70
2018-08-17T22:39:19.613Z,17.60
2018-08-17T22:41:54.049Z,17.60
2018-08-17T22:44:28.135Z,17.70
2018-08-17T22:47:11.589Z,17.80
2018-08-17T22:49:46.368Z,17.70
2018-08-17T22:52:20.794Z,17.60
2018-08-17T22:55:03.792Z,17.70
2018-08-17T22:57:38.066Z,17.80
2018-08-17T23:00:18.288Z,17.70
2018-08-17T23:02:53.707Z,17.70
2018-08-17T23:05:29.580Z,17.80
2018-08-17T23:08:03.776Z,17.70
2018-08-17T23:10:38.104Z,17.60
2018-08-17T23:13:12.415Z,17.60
2018-08-17T23:15:46.663Z,17.60
2018-08-17T23:18:21.015Z,17.60
2018-08-17T23:20:55.340Z,17.60
2018-08-17T23:23:30.476Z,17.60
2018-08-17T23:26:04.803Z,17.40
2018-08-17T23:28:39.011Z,17.30
2018-08-17T23:31:13.299Z,17.30
2018-08-17T23:33:47.556Z,17.40
2018-08-17T23:36:21.820Z,17.40
2018-08-17T23:38:56.108Z,17.50
2018-08-17T23:41:30.516Z,17.60
2018-08-17T23:44:04.960Z,17.70
2018-08-17T23:46:39.265Z,17.60
2018-08-17T23:49:13.570Z,17.60
2018-08-17T23:51:47.888Z,17.70
2018-08-17T23:54:22.204Z,17.60
2018-08-17T23:56:56.408Z,17.70
2018-08-17T23:59:30.692Z,17.50
